sensor_id;sensor_type;location;lat;lon;timestamp;P1;durP1;ratioP1;P2;durP2;ratioP2
9288;SDS011;4683;50.864;12.086;2023-08-24T00:01:09;5.73;;;5.23;;
9288;SDS011;4683;50.864;12.086;2023-08-24T00:03:40;5.63;;;5.23;;
9288;SDS011;4683;50.864;12.086;2023-08-24T00:06:09;6.63;;;5.00;;
9288;SDS011;4683;50.864;12.086;2023-08-24T00:08:38;7.40;;;6.03;;
9288;SDS011;4683;50.864;12.086;2023-08-24T00:11:07;7.83;;;6.30;;
9288;SDS011;4683;50.864;12.086;2023-08-24T00:13:42;6.83;;;6.23;;
9288;SDS011;4683;50.864;12.086;2023-08-24T00:16:14;6.57;;;5.87;;
9288;SDS011;4683;50.864;12.086;2023-08-24T00:18:43;5.93;;;5.43;;
9288;SDS011;4683;50.864;12.086;2023-08-24T00:21:13;5.70;;;5.30;;
9288;SDS011;4683;50.864;12.086;2023-08-24T00:23:43;5.87;;;5.27;;
9288;SDS011;4683;50.864;12.086;2023-08-24T00:26:11;6.93;;;5.73;;
9288;SDS011;4683;50.864;12.086;2023-08-24T00:32:07;6.40;;;5.67;;
9288;SDS011;4683;50.864;12.086;2023-08-24T00:34:36;6.43;;;5.83;;
9288;SDS011;4683;50.864;12.086;2023-08-24T00:37:05;6.40;;;5.80;;
9288;SDS011;4683;50.864;12.086;2023-08-24T00:39:33;6.73;;;5.93;;
9288;SDS011;4683;50.864;12.086;2023-08-24T00:42:03;6.80;;;6.20;;
9288;SDS011;4683;50.864;12.086;2023-08-24T00:44:31;6.70;;;6.10;;
9288;SDS011;4683;50.864;12.086;2023-08-24T00:47:01;6.83;;;6.13;;
9288;SDS011;4683;50.864;12.086;2023-08-24T00:49:30;6.50;;;5.97;;
9288;SDS011;4683;50.864;12.086;2023-08-24T00:51:58;7.00;;;6.30;;
9288;SDS011;4683;50.864;12.086;2023-08-24T00:54:27;6.07;;;5.50;;
9288;SDS011;4683;50.864;12.086;2023-08-24T00:57:01;6.37;;;5.70;;
9288;SDS011;4683;50.864;12.086;2023-08-24T00:59:30;8.63;;;5.63;;
9288;SDS011;4683;50.864;12.086;2023-08-24T01:01:59;6.43;;;5.50;;
9288;SDS011;4683;50.864;12.086;2023-08-24T01:04:29;6.60;;;5.93;;
9288;SDS011;4683;50.864;12.086;2023-08-24T01:06:58;7.33;;;5.83;;
9288;SDS011;4683;50.864;12.086;2023-08-24T01:09:27;6.80;;;6.17;;
9288;SDS011;4683;50.864;12.086;2023-08-24T01:11:58;6.97;;;6.40;;
9288;SDS011;4683;50.864;12.086;2023-08-24T01:14:36;7.63;;;6.70;;
9288;SDS011;4683;50.864;12.086;2023-08-24T01:17:14;7.30;;;6.67;;
9288;SDS011;4683;50.864;12.086;2023-08-24T01:19:48;6.37;;;5.87;;
9288;SDS011;4683;50.864;12.086;2023-08-24T01:22:23;6.80;;;6.20;;
9288;SDS011;4683;50.864;12.086;2023-08-24T01:25:05;6.43;;;5.93;;
9288;SDS011;4683;50.864;12.086;2023-08-24T01:27:40;6.90;;;5.77;;
9288;SDS011;4683;50.864;12.086;2023-08-24T01:30:10;6.77;;;6.13;;
9288;SDS011;4683;50.864;12.086;2023-08-24T01:32:39;7.77;;;6.23;;
9288;SDS011;4683;50.864;12.086;2023-08-24T01:35:09;6.20;;;5.70;;
9288;SDS011;4683;50.864;12.086;2023-08-24T01:37:38;6.80;;;6.20;;
9288;SDS011;4683;50.864;12.086;2023-08-24T01:40:10;6.83;;;6.00;;
9288;SDS011;4683;50.864;12.086;2023-08-24T01:42:48;7.00;;;6.30;;
9288;SDS011;4683;50.864;12.086;2023-08-24T01:45:22;7.33;;;6.63;;
9288;SDS011;4683;50.864;12.086;2023-08-24T01:47:55;6.77;;;6.17;;
9288;SDS011;4683;50.864;12.086;2023-08-24T01:50:24;7.57;;;6.90;;
9288;SDS011;4683;50.864;12.086;2023-08-24T01:52:52;7.97;;;6.43;;
9288;SDS011;4683;50.864;12.086;2023-08-24T01:55:21;6.90;;;6.40;;
9288;SDS011;4683;50.864;12.086;2023-08-24T01:57:51;8.30;;;6.93;;
9288;SDS011;4683;50.864;12.086;2023-08-24T02:00:20;7.80;;;6.60;;
9288;SDS011;4683;50.864;12.086;2023-08-24T02:02:49;6.57;;;5.87;;
9288;SDS011;4683;50.864;12.086;2023-08-24T02:05:17;7.20;;;6.60;;
9288;SDS011;4683;50.864;12.086;2023-08-24T02:07:46;7.77;;;6.77;;
9288;SDS011;4683;50.864;12.086;2023-08-24T02:10:14;7.73;;;7.03;;
9288;SDS011;4683;50.864;12.086;2023-08-24T02:12:43;7.53;;;6.83;;
9288;SDS011;4683;50.864;12.086;2023-08-24T02:15:12;6.70;;;6.10;;
9288;SDS011;4683;50.864;12.086;2023-08-24T02:17:41;6.90;;;6.40;;
9288;SDS011;4683;50.864;12.086;2023-08-24T02:20:10;6.90;;;6.20;;
9288;SDS011;4683;50.864;12.086;2023-08-24T02:22:39;7.40;;;6.83;;
9288;SDS011;4683;50.864;12.086;2023-08-24T02:25:09;7.37;;;6.50;;
9288;SDS011;4683;50.864;12.086;2023-08-24T02:27:38;6.37;;;5.87;;
9288;SDS011;4683;50.864;12.086;2023-08-24T02:30:07;7.20;;;6.60;;
9288;SDS011;4683;50.864;12.086;2023-08-24T02:32:37;6.73;;;6.23;;
9288;SDS011;4683;50.864;12.086;2023-08-24T02:35:06;6.40;;;5.90;;
9288;SDS011;4683;50.864;12.086;2023-08-24T02:37:35;6.43;;;5.93;;
9288;SDS011;4683;50.864;12.086;2023-08-24T02:40:04;9.00;;;6.57;;
9288;SDS011;4683;50.864;12.086;2023-08-24T02:42:35;7.23;;;6.63;;
9288;SDS011;4683;50.864;12.086;2023-08-24T02:45:03;7.90;;;6.80;;
9288;SDS011;4683;50.864;12.086;2023-08-24T02:47:33;6.63;;;6.03;;
9288;SDS011;4683;50.864;12.086;2023-08-24T02:50:04;7.07;;;6.37;;
9288;SDS011;4683;50.864;12.086;2023-08-24T02:52:35;7.30;;;6.53;;
9288;SDS011;4683;50.864;12.086;2023-08-24T02:55:04;11.60;;;7.47;;
9288;SDS011;4683;50.864;12.086;2023-08-24T02:57:34;7.63;;;6.93;;
9288;SDS011;4683;50.864;12.086;2023-08-24T03:00:03;7.30;;;6.60;;
9288;SDS011;4683;50.864;12.086;2023-08-24T03:02:35;8.00;;;7.30;;
9288;SDS011;4683;50.864;12.086;2023-08-24T03:05:06;7.67;;;6.93;;
9288;SDS011;4683;50.864;12.086;2023-08-24T03:07:35;7.87;;;7.17;;
9288;SDS011;4683;50.864;12.086;2023-08-24T03:10:04;7.43;;;6.83;;
9288;SDS011;4683;50.864;12.086;2023-08-24T03:12:33;7.10;;;6.60;;
9288;SDS011;4683;50.864;12.086;2023-08-24T03:15:02;7.73;;;6.93;;
9288;SDS011;4683;50.864;12.086;2023-08-24T03:21:40;8.57;;;7.60;;
9288;SDS011;4683;50.864;12.086;2023-08-24T03:24:08;8.40;;;7.50;;
9288;SDS011;4683;50.864;12.086;2023-08-24T03:26:36;8.70;;;7.00;;
9288;SDS011;4683;50.864;12.086;2023-08-24T03:29:04;7.47;;;6.87;;
9288;SDS011;4683;50.864;12.086;2023-08-24T03:31:32;7.93;;;6.97;;
9288;SDS011;4683;50.864;12.086;2023-08-24T03:34:06;9.30;;;8.40;;
9288;SDS011;4683;50.864;12.086;2023-08-24T03:36:35;8.10;;;7.30;;
9288;SDS011;4683;50.864;12.086;2023-08-24T03:39:05;8.20;;;7.40;;
9288;SDS011;4683;50.864;12.086;2023-08-24T03:41:34;9.03;;;7.17;;
9288;SDS011;4683;50.864;12.086;2023-08-24T03:44:03;8.60;;;7.80;;
9288;SDS011;4683;50.864;12.086;2023-08-24T03:46:32;8.17;;;7.40;;
9288;SDS011;4683;50.864;12.086;2023-08-24T03:49:01;7.50;;;6.80;;
9288;SDS011;4683;50.864;12.086;2023-08-24T03:51:29;8.47;;;7.77;;
9288;SDS011;4683;50.864;12.086;2023-08-24T03:53:58;8.17;;;7.43;;
9288;SDS011;4683;50.864;12.086;2023-08-24T03:56:27;8.13;;;7.40;;
9288;SDS011;4683;50.864;12.086;2023-08-24T03:58:56;8.07;;;7.13;;
9288;SDS011;4683;50.864;12.086;2023-08-24T04:01:25;8.07;;;7.00;;
9288;SDS011;4683;50.864;12.086;2023-08-24T04:03:53;8.83;;;7.83;;
9288;SDS011;4683;50.864;12.086;2023-08-24T04:06:21;7.90;;;7.10;;
9288;SDS011;4683;50.864;12.086;2023-08-24T04:08:49;8.30;;;7.43;;
9288;SDS011;4683;50.864;12.086;2023-08-24T04:11:18;8.47;;;7.17;;
9288;SDS011;4683;50.864;12.086;2023-08-24T04:13:48;9.37;;;8.57;;
9288;SDS011;4683;50.864;12.086;2023-08-24T04:16:16;9.33;;;8.17;;
9288;SDS011;4683;50.864;12.086;2023-08-24T04:18:45;9.10;;;8.30;;
9288;SDS011;4683;50.864;12.086;2023-08-24T04:21:13;10.23;;;9.23;;
9288;SDS011;4683;50.864;12.086;2023-08-24T04:23:43;12.33;;;9.80;;
9288;SDS011;4683;50.864;12.086;2023-08-24T04:26:11;8.63;;;7.93;;
9288;SDS011;4683;50.864;12.086;2023-08-24T04:28:40;9.00;;;7.80;;
9288;SDS011;4683;50.864;12.086;2023-08-24T04:31:10;9.50;;;8.70;;
9288;SDS011;4683;50.864;12.086;2023-08-24T04:33:38;8.17;;;7.47;;
9288;SDS011;4683;50.864;12.086;2023-08-24T04:36:07;9.37;;;8.57;;
9288;SDS011;4683;50.864;12.086;2023-08-24T04:38:35;10.23;;;9.23;;
9288;SDS011;4683;50.864;12.086;2023-08-24T04:41:07;9.00;;;7.90;;
9288;SDS011;4683;50.864;12.086;2023-08-24T04:43:40;8.47;;;7.57;;
9288;SDS011;4683;50.864;12.086;2023-08-24T04:46:10;9.43;;;7.93;;
9288;SDS011;4683;50.864;12.086;2023-08-24T04:48:39;8.20;;;7.60;;
9288;SDS011;4683;50.864;12.086;2023-08-24T04:51:08;8.07;;;7.27;;
9288;SDS011;4683;50.864;12.086;2023-08-24T04:53:37;7.77;;;7.07;;
9288;SDS011;4683;50.864;12.086;2023-08-24T04:56:05;8.80;;;7.13;;
9288;SDS011;4683;50.864;12.086;2023-08-24T04:58:35;8.90;;;8.13;;
9288;SDS011;4683;50.864;12.086;2023-08-24T05:01:04;10.10;;;9.13;;
9288;SDS011;4683;50.864;12.086;2023-08-24T05:03:34;10.27;;;9.27;;
9288;SDS011;4683;50.864;12.086;2023-08-24T05:06:04;9.27;;;8.37;;
9288;SDS011;4683;50.864;12.086;2023-08-24T05:08:33;9.30;;;8.40;;
9288;SDS011;4683;50.864;12.086;2023-08-24T05:11:11;9.07;;;8.37;;
9288;SDS011;4683;50.864;12.086;2023-08-24T05:13:41;8.93;;;8.13;;
9288;SDS011;4683;50.864;12.086;2023-08-24T05:16:10;11.37;;;8.57;;
9288;SDS011;4683;50.864;12.086;2023-08-24T05:18:45;8.53;;;7.80;;
9288;SDS011;4683;50.864;12.086;2023-08-24T05:21:14;9.43;;;8.40;;
9288;SDS011;4683;50.864;12.086;2023-08-24T05:23:44;9.00;;;8.10;;
9288;SDS011;4683;50.864;12.086;2023-08-24T05:26:15;10.37;;;8.43;;
9288;SDS011;4683;50.864;12.086;2023-08-24T05:28:49;9.40;;;8.50;;
9288;SDS011;4683;50.864;12.086;2023-08-24T05:31:24;11.27;;;8.50;;
9288;SDS011;4683;50.864;12.086;2023-08-24T05:33:56;9.07;;;8.17;;
9288;SDS011;4683;50.864;12.086;2023-08-24T05:36:27;9.10;;;8.23;;
9288;SDS011;4683;50.864;12.086;2023-08-24T05:38:56;9.07;;;8.17;;
9288;SDS011;4683;50.864;12.086;2023-08-24T05:41:24;9.17;;;8.47;;
9288;SDS011;4683;50.864;12.086;2023-08-24T05:43:54;9.70;;;8.17;;
9288;SDS011;4683;50.864;12.086;2023-08-24T05:46:26;8.13;;;7.53;;
9288;SDS011;4683;50.864;12.086;2023-08-24T05:48:58;9.20;;;8.27;;
9288;SDS011;4683;50.864;12.086;2023-08-24T05:51:32;8.93;;;7.13;;
9288;SDS011;4683;50.864;12.086;2023-08-24T05:54:02;8.23;;;7.57;;
9288;SDS011;4683;50.864;12.086;2023-08-24T05:56:33;10.33;;;7.47;;
9288;SDS011;4683;50.864;12.086;2023-08-24T05:59:07;8.57;;;7.77;;
9288;SDS011;4683;50.864;12.086;2023-08-24T06:01:46;8.13;;;7.43;;
9288;SDS011;4683;50.864;12.086;2023-08-24T06:04:26;7.67;;;6.97;;
9288;SDS011;4683;50.864;12.086;2023-08-24T06:07:00;8.70;;;7.37;;
9288;SDS011;4683;50.864;12.086;2023-08-24T06:09:42;8.47;;;7.10;;
9288;SDS011;4683;50.864;12.086;2023-08-24T06:12:19;7.73;;;7.03;;
9288;SDS011;4683;50.864;12.086;2023-08-24T06:14:53;8.10;;;6.80;;
9288;SDS011;4683;50.864;12.086;2023-08-24T06:17:25;8.67;;;7.00;;
9288;SDS011;4683;50.864;12.086;2023-08-24T06:19:57;8.50;;;7.53;;
9288;SDS011;4683;50.864;12.086;2023-08-24T06:22:31;8.40;;;7.30;;
9288;SDS011;4683;50.864;12.086;2023-08-24T06:25:01;7.63;;;6.83;;
9288;SDS011;4683;50.864;12.086;2023-08-24T06:27:32;7.37;;;6.77;;
9288;SDS011;4683;50.864;12.086;2023-08-24T06:30:05;10.80;;;6.53;;
9288;SDS011;4683;50.864;12.086;2023-08-24T06:32:34;7.33;;;6.63;;
9288;SDS011;4683;50.864;12.086;2023-08-24T06:35:06;8.03;;;6.53;;
9288;SDS011;4683;50.864;12.086;2023-08-24T06:37:42;8.80;;;7.10;;
9288;SDS011;4683;50.864;12.086;2023-08-24T06:40:11;12.47;;;8.00;;
9288;SDS011;4683;50.864;12.086;2023-08-24T06:42:42;13.77;;;8.20;;
9288;SDS011;4683;50.864;12.086;2023-08-24T06:45:17;7.80;;;6.90;;
9288;SDS011;4683;50.864;12.086;2023-08-24T06:48:01;7.33;;;6.63;;
9288;SDS011;4683;50.864;12.086;2023-08-24T06:50:36;9.53;;;7.23;;
9288;SDS011;4683;50.864;12.086;2023-08-24T06:53:05;7.47;;;6.53;;
9288;SDS011;4683;50.864;12.086;2023-08-24T06:55:36;8.53;;;7.77;;
9288;SDS011;4683;50.864;12.086;2023-08-24T06:58:06;9.43;;;7.33;;
9288;SDS011;4683;50.864;12.086;2023-08-24T07:00:36;9.17;;;6.80;;
9288;SDS011;4683;50.864;12.086;2023-08-24T07:03:06;7.53;;;6.83;;
9288;SDS011;4683;50.864;12.086;2023-08-24T07:05:39;9.43;;;6.80;;
9288;SDS011;4683;50.864;12.086;2023-08-24T07:08:13;8.93;;;6.97;;
9288;SDS011;4683;50.864;12.086;2023-08-24T07:10:49;10.47;;;7.10;;
9288;SDS011;4683;50.864;12.086;2023-08-24T07:13:31;8.77;;;6.20;;
9288;SDS011;4683;50.864;12.086;2023-08-24T07:16:05;7.23;;;6.53;;
9288;SDS011;4683;50.864;12.086;2023-08-24T07:18:36;6.90;;;6.07;;
9288;SDS011;4683;50.864;12.086;2023-08-24T07:21:09;9.40;;;6.57;;
9288;SDS011;4683;50.864;12.086;2023-08-24T07:23:40;9.30;;;6.73;;
9288;SDS011;4683;50.864;12.086;2023-08-24T07:26:10;9.10;;;7.33;;
9288;SDS011;4683;50.864;12.086;2023-08-24T07:28:40;8.17;;;6.37;;
9288;SDS011;4683;50.864;12.086;2023-08-24T07:31:11;9.20;;;5.90;;
9288;SDS011;4683;50.864;12.086;2023-08-24T07:33:51;6.20;;;5.60;;
9288;SDS011;4683;50.864;12.086;2023-08-24T07:36:22;7.63;;;6.20;;
9288;SDS011;4683;50.864;12.086;2023-08-24T07:38:57;6.77;;;5.50;;
9288;SDS011;4683;50.864;12.086;2023-08-24T07:41:33;6.27;;;5.63;;
9288;SDS011;4683;50.864;12.086;2023-08-24T07:44:03;7.17;;;5.47;;
9288;SDS011;4683;50.864;12.086;2023-08-24T07:46:47;10.40;;;5.80;;
9288;SDS011;4683;50.864;12.086;2023-08-24T07:49:33;7.57;;;5.20;;
9288;SDS011;4683;50.864;12.086;2023-08-24T07:52:05;5.90;;;5.40;;
9288;SDS011;4683;50.864;12.086;2023-08-24T07:54:41;5.80;;;5.27;;
9288;SDS011;4683;50.864;12.086;2023-08-24T07:57:20;5.30;;;4.80;;
9288;SDS011;4683;50.864;12.086;2023-08-24T07:59:59;5.80;;;5.20;;
9288;SDS011;4683;50.864;12.086;2023-08-24T08:02:55;12.37;;;5.17;;
9288;SDS011;4683;50.864;12.086;2023-08-24T08:05:53;7.67;;;5.47;;
9288;SDS011;4683;50.864;12.086;2023-08-24T08:08:23;7.00;;;5.30;;
9288;SDS011;4683;50.864;12.086;2023-08-24T08:11:00;6.47;;;4.80;;
9288;SDS011;4683;50.864;12.086;2023-08-24T08:13:31;6.43;;;4.90;;
9288;SDS011;4683;50.864;12.086;2023-08-24T08:16:02;6.60;;;5.93;;
9288;SDS011;4683;50.864;12.086;2023-08-24T08:18:35;7.33;;;5.90;;
9288;SDS011;4683;50.864;12.086;2023-08-24T08:21:10;6.90;;;4.97;;
9288;SDS011;4683;50.864;12.086;2023-08-24T08:23:47;5.77;;;4.90;;
9288;SDS011;4683;50.864;12.086;2023-08-24T08:26:16;6.50;;;4.97;;
9288;SDS011;4683;50.864;12.086;2023-08-24T08:28:48;6.53;;;5.33;;
9288;SDS011;4683;50.864;12.086;2023-08-24T08:31:19;5.30;;;4.80;;
9288;SDS011;4683;50.864;12.086;2023-08-24T08:33:54;6.07;;;4.93;;
9288;SDS011;4683;50.864;12.086;2023-08-24T08:36:42;9.60;;;5.10;;
9288;SDS011;4683;50.864;12.086;2023-08-24T08:39:19;6.10;;;4.93;;
9288;SDS011;4683;50.864;12.086;2023-08-24T08:42:11;5.90;;;5.27;;
9288;SDS011;4683;50.864;12.086;2023-08-24T08:44:44;5.33;;;4.53;;
9288;SDS011;4683;50.864;12.086;2023-08-24T08:47:21;5.43;;;4.70;;
9288;SDS011;4683;50.864;12.086;2023-08-24T08:49:52;5.07;;;4.67;;
9288;SDS011;4683;50.864;12.086;2023-08-24T08:52:28;6.13;;;4.30;;
9288;SDS011;4683;50.864;12.086;2023-08-24T08:55:01;6.03;;;4.33;;
9288;SDS011;4683;50.864;12.086;2023-08-24T08:57:33;4.83;;;4.30;;
9288;SDS011;4683;50.864;12.086;2023-08-24T09:00:07;4.60;;;4.20;;
9288;SDS011;4683;50.864;12.086;2023-08-24T09:02:46;5.60;;;4.77;;
9288;SDS011;4683;50.864;12.086;2023-08-24T09:05:26;5.00;;;4.60;;
9288;SDS011;4683;50.864;12.086;2023-08-24T09:08:11;6.00;;;5.00;;
9288;SDS011;4683;50.864;12.086;2023-08-24T09:10:46;5.60;;;5.07;;
9288;SDS011;4683;50.864;12.086;2023-08-24T09:13:17;6.13;;;4.77;;
9288;SDS011;4683;50.864;12.086;2023-08-24T09:15:47;5.60;;;5.00;;
9288;SDS011;4683;50.864;12.086;2023-08-24T09:18:32;6.03;;;5.53;;
9288;SDS011;4683;50.864;12.086;2023-08-24T09:21:10;5.23;;;4.73;;
9288;SDS011;4683;50.864;12.086;2023-08-24T09:23:43;5.10;;;4.60;;
9288;SDS011;4683;50.864;12.086;2023-08-24T09:26:18;5.73;;;4.53;;
9288;SDS011;4683;50.864;12.086;2023-08-24T09:28:59;7.37;;;4.60;;
9288;SDS011;4683;50.864;12.086;2023-08-24T09:31:39;6.20;;;4.70;;
9288;SDS011;4683;50.864;12.086;2023-08-24T09:34:12;5.40;;;4.93;;
9288;SDS011;4683;50.864;12.086;2023-08-24T09:36:43;4.83;;;4.43;;
9288;SDS011;4683;50.864;12.086;2023-08-24T09:39:16;5.93;;;4.77;;
9288;SDS011;4683;50.864;12.086;2023-08-24T09:41:51;5.00;;;4.50;;
9288;SDS011;4683;50.864;12.086;2023-08-24T09:44:22;5.13;;;4.63;;
9288;SDS011;4683;50.864;12.086;2023-08-24T09:46:58;5.00;;;4.43;;
9288;SDS011;4683;50.864;12.086;2023-08-24T09:49:34;4.20;;;3.90;;
9288;SDS011;4683;50.864;12.086;2023-08-24T09:52:08;5.53;;;4.97;;
9288;SDS011;4683;50.864;12.086;2023-08-24T09:54:41;6.27;;;4.50;;
9288;SDS011;4683;50.864;12.086;2023-08-24T09:57:24;8.93;;;5.03;;
9288;SDS011;4683;50.864;12.086;2023-08-24T10:00:11;4.67;;;4.27;;
9288;SDS011;4683;50.864;12.086;2023-08-24T10:02:51;6.67;;;4.53;;
9288;SDS011;4683;50.864;12.086;2023-08-24T10:05:30;4.27;;;3.87;;
9288;SDS011;4683;50.864;12.086;2023-08-24T10:08:01;5.93;;;4.03;;
9288;SDS011;4683;50.864;12.086;2023-08-24T10:10:37;8.10;;;4.10;;
9288;SDS011;4683;50.864;12.086;2023-08-24T10:13:29;3.37;;;3.17;;
9288;SDS011;4683;50.864;12.086;2023-08-24T10:16:23;4.07;;;3.40;;
9288;SDS011;4683;50.864;12.086;2023-08-24T10:19:04;9.40;;;7.87;;
9288;SDS011;4683;50.864;12.086;2023-08-24T10:21:53;4.90;;;3.40;;
9288;SDS011;4683;50.864;12.086;2023-08-24T10:24:33;8.00;;;5.33;;
9288;SDS011;4683;50.864;12.086;2023-08-24T10:27:14;4.40;;;4.00;;
9288;SDS011;4683;50.864;12.086;2023-08-24T10:29:57;6.30;;;5.70;;
9288;SDS011;4683;50.864;12.086;2023-08-24T10:32:43;5.10;;;4.50;;
9288;SDS011;4683;50.864;12.086;2023-08-24T10:35:26;6.97;;;5.03;;
9288;SDS011;4683;50.864;12.086;2023-08-24T10:38:25;6.97;;;4.23;;
9288;SDS011;4683;50.864;12.086;2023-08-24T10:41:02;4.60;;;4.10;;
9288;SDS011;4683;50.864;12.086;2023-08-24T10:43:39;5.80;;;4.30;;
9288;SDS011;4683;50.864;12.086;2023-08-24T10:46:42;7.83;;;4.37;;
9288;SDS011;4683;50.864;12.086;2023-08-24T10:49:37;6.90;;;4.00;;
9288;SDS011;4683;50.864;12.086;2023-08-24T10:52:18;4.57;;;4.03;;
9288;SDS011;4683;50.864;12.086;2023-08-24T10:55:01;4.40;;;3.80;;
9288;SDS011;4683;50.864;12.086;2023-08-24T10:58:06;5.27;;;4.00;;
9288;SDS011;4683;50.864;12.086;2023-08-24T11:00:49;4.57;;;3.63;;
9288;SDS011;4683;50.864;12.086;2023-08-24T11:03:33;4.20;;;3.80;;
9288;SDS011;4683;50.864;12.086;2023-08-24T11:06:16;5.77;;;4.60;;
9288;SDS011;4683;50.864;12.086;2023-08-24T11:08:47;4.40;;;3.90;;
9288;SDS011;4683;50.864;12.086;2023-08-24T11:11:36;5.07;;;4.30;;
9288;SDS011;4683;50.864;12.086;2023-08-24T11:14:15;4.47;;;3.80;;
9288;SDS011;4683;50.864;12.086;2023-08-24T11:16:57;5.03;;;3.73;;
9288;SDS011;4683;50.864;12.086;2023-08-24T11:19:50;4.27;;;3.87;;
9288;SDS011;4683;50.864;12.086;2023-08-24T11:22:25;4.27;;;3.83;;
9288;SDS011;4683;50.864;12.086;2023-08-24T11:24:57;5.93;;;5.43;;
9288;SDS011;4683;50.864;12.086;2023-08-24T11:27:38;4.37;;;4.07;;
9288;SDS011;4683;50.864;12.086;2023-08-24T11:30:22;4.17;;;3.87;;
9288;SDS011;4683;50.864;12.086;2023-08-24T11:32:52;4.37;;;3.97;;
9288;SDS011;4683;50.864;12.086;2023-08-24T11:35:27;5.13;;;3.97;;
9288;SDS011;4683;50.864;12.086;2023-08-24T11:38:08;5.00;;;3.63;;
9288;SDS011;4683;50.864;12.086;2023-08-24T11:40:42;5.83;;;3.60;;
9288;SDS011;4683;50.864;12.086;2023-08-24T11:43:11;4.80;;;4.20;;
9288;SDS011;4683;50.864;12.086;2023-08-24T11:45:50;4.50;;;4.20;;
9288;SDS011;4683;50.864;12.086;2023-08-24T11:48:23;4.23;;;3.90;;
9288;SDS011;4683;50.864;12.086;2023-08-24T11:51:04;3.83;;;3.47;;
9288;SDS011;4683;50.864;12.086;2023-08-24T11:53:45;3.93;;;3.57;;
9288;SDS011;4683;50.864;12.086;2023-08-24T11:56:14;4.20;;;3.90;;
9288;SDS011;4683;50.864;12.086;2023-08-24T11:59:04;4.37;;;3.80;;
9288;SDS011;4683;50.864;12.086;2023-08-24T12:01:42;4.30;;;3.80;;
9288;SDS011;4683;50.864;12.086;2023-08-24T12:04:15;3.77;;;3.47;;
9288;SDS011;4683;50.864;12.086;2023-08-24T12:06:47;5.47;;;4.33;;
9288;SDS011;4683;50.864;12.086;2023-08-24T12:09:21;4.40;;;3.60;;
9288;SDS011;4683;50.864;12.086;2023-08-24T12:11:55;4.87;;;3.83;;
9288;SDS011;4683;50.864;12.086;2023-08-24T12:14:27;4.40;;;3.50;;
9288;SDS011;4683;50.864;12.086;2023-08-24T12:16:56;4.10;;;3.80;;
9288;SDS011;4683;50.864;12.086;2023-08-24T12:19:26;4.30;;;3.83;;
9288;SDS011;4683;50.864;12.086;2023-08-24T12:22:00;7.70;;;4.03;;
9288;SDS011;4683;50.864;12.086;2023-08-24T12:24:44;4.50;;;3.90;;
9288;SDS011;4683;50.864;12.086;2023-08-24T12:27:17;8.73;;;6.50;;
9288;SDS011;4683;50.864;12.086;2023-08-24T12:29:50;4.80;;;4.10;;
9288;SDS011;4683;50.864;12.086;2023-08-24T12:32:28;5.00;;;4.60;;
9288;SDS011;4683;50.864;12.086;2023-08-24T12:35:40;5.80;;;3.53;;
9288;SDS011;4683;50.864;12.086;2023-08-24T12:38:11;4.23;;;3.33;;
9288;SDS011;4683;50.864;12.086;2023-08-24T12:40:40;4.33;;;3.90;;
9288;SDS011;4683;50.864;12.086;2023-08-24T12:43:09;4.40;;;4.00;;
9288;SDS011;4683;50.864;12.086;2023-08-24T12:45:39;5.73;;;4.43;;
9288;SDS011;4683;50.864;12.086;2023-08-24T12:48:13;4.17;;;3.70;;
9288;SDS011;4683;50.864;12.086;2023-08-24T12:50:43;5.63;;;3.60;;
9288;SDS011;4683;50.864;12.086;2023-08-24T12:53:13;4.13;;;3.70;;
9288;SDS011;4683;50.864;12.086;2023-08-24T12:55:48;4.83;;;3.63;;
9288;SDS011;4683;50.864;12.086;2023-08-24T12:58:20;4.30;;;3.87;;
9288;SDS011;4683;50.864;12.086;2023-08-24T13:00:55;4.37;;;3.97;;
9288;SDS011;4683;50.864;12.086;2023-08-24T13:03:24;4.80;;;3.83;;
9288;SDS011;4683;50.864;12.086;2023-08-24T13:05:52;5.37;;;3.80;;
9288;SDS011;4683;50.864;12.086;2023-08-24T13:08:26;4.97;;;3.20;;
9288;SDS011;4683;50.864;12.086;2023-08-24T13:11:00;8.20;;;4.00;;
9288;SDS011;4683;50.864;12.086;2023-08-24T13:13:31;4.13;;;3.70;;
9288;SDS011;4683;50.864;12.086;2023-08-24T13:16:00;7.47;;;3.73;;
9288;SDS011;4683;50.864;12.086;2023-08-24T13:18:33;5.80;;;3.63;;
9288;SDS011;4683;50.864;12.086;2023-08-24T13:21:01;7.93;;;3.83;;
9288;SDS011;4683;50.864;12.086;2023-08-24T13:23:35;3.70;;;3.40;;
9288;SDS011;4683;50.864;12.086;2023-08-24T13:26:12;4.97;;;4.00;;
9288;SDS011;4683;50.864;12.086;2023-08-24T13:28:58;4.47;;;3.57;;
9288;SDS011;4683;50.864;12.086;2023-08-24T13:31:34;4.67;;;3.60;;
9288;SDS011;4683;50.864;12.086;2023-08-24T13:34:05;4.17;;;3.67;;
9288;SDS011;4683;50.864;12.086;2023-08-24T13:36:36;5.47;;;3.97;;
9288;SDS011;4683;50.864;12.086;2023-08-24T13:39:08;3.90;;;3.60;;
9288;SDS011;4683;50.864;12.086;2023-08-24T13:41:45;4.20;;;3.80;;
9288;SDS011;4683;50.864;12.086;2023-08-24T13:44:14;6.13;;;4.30;;
9288;SDS011;4683;50.864;12.086;2023-08-24T13:46:43;4.10;;;3.70;;
9288;SDS011;4683;50.864;12.086;2023-08-24T13:49:13;3.60;;;3.30;;
9288;SDS011;4683;50.864;12.086;2023-08-24T13:51:43;5.93;;;3.97;;
9288;SDS011;4683;50.864;12.086;2023-08-24T13:54:14;4.03;;;3.33;;
9288;SDS011;4683;50.864;12.086;2023-08-24T13:56:48;4.73;;;3.60;;
9288;SDS011;4683;50.864;12.086;2023-08-24T13:59:17;6.10;;;3.87;;
9288;SDS011;4683;50.864;12.086;2023-08-24T14:01:48;3.93;;;3.50;;
9288;SDS011;4683;50.864;12.086;2023-08-24T14:04:17;5.03;;;3.70;;
9288;SDS011;4683;50.864;12.086;2023-08-24T14:06:45;4.00;;;3.60;;
9288;SDS011;4683;50.864;12.086;2023-08-24T14:09:16;5.27;;;3.50;;
9288;SDS011;4683;50.864;12.086;2023-08-24T14:11:45;4.00;;;3.60;;
9288;SDS011;4683;50.864;12.086;2023-08-24T14:14:17;4.10;;;3.80;;
9288;SDS011;4683;50.864;12.086;2023-08-24T14:16:55;4.30;;;3.90;;
9288;SDS011;4683;50.864;12.086;2023-08-24T14:19:29;3.90;;;3.50;;
9288;SDS011;4683;50.864;12.086;2023-08-24T14:22:21;4.23;;;3.80;;
9288;SDS011;4683;50.864;12.086;2023-08-24T14:24:52;5.50;;;3.70;;
9288;SDS011;4683;50.864;12.086;2023-08-24T14:27:21;4.30;;;3.90;;
9288;SDS011;4683;50.864;12.086;2023-08-24T14:29:50;5.73;;;3.70;;
9288;SDS011;4683;50.864;12.086;2023-08-24T14:32:22;5.37;;;3.90;;
9288;SDS011;4683;50.864;12.086;2023-08-24T14:34:53;3.87;;;3.50;;
9288;SDS011;4683;50.864;12.086;2023-08-24T14:37:31;5.17;;;3.50;;
9288;SDS011;4683;50.864;12.086;2023-08-24T14:40:07;6.63;;;3.60;;
9288;SDS011;4683;50.864;12.086;2023-08-24T14:42:37;7.23;;;4.10;;
9288;SDS011;4683;50.864;12.086;2023-08-24T14:45:10;5.57;;;4.53;;
9288;SDS011;4683;50.864;12.086;2023-08-24T14:47:49;8.17;;;5.13;;
9288;SDS011;4683;50.864;12.086;2023-08-24T14:50:19;5.07;;;4.27;;
9288;SDS011;4683;50.864;12.086;2023-08-24T14:52:53;7.53;;;4.30;;
9288;SDS011;4683;50.864;12.086;2023-08-24T14:55:25;5.63;;;3.80;;
9288;SDS011;4683;50.864;12.086;2023-08-24T14:57:55;10.20;;;4.30;;
9288;SDS011;4683;50.864;12.086;2023-08-24T15:00:26;4.93;;;3.77;;
9288;SDS011;4683;50.864;12.086;2023-08-24T15:02:55;4.13;;;3.73;;
9288;SDS011;4683;50.864;12.086;2023-08-24T15:05:26;4.77;;;3.90;;
9288;SDS011;4683;50.864;12.086;2023-08-24T15:07:56;4.60;;;4.20;;
9288;SDS011;4683;50.864;12.086;2023-08-24T15:10:29;4.90;;;3.73;;
9288;SDS011;4683;50.864;12.086;2023-08-24T15:12:59;7.93;;;5.20;;
9288;SDS011;4683;50.864;12.086;2023-08-24T15:15:29;5.77;;;4.30;;
9288;SDS011;4683;50.864;12.086;2023-08-24T15:17:58;6.33;;;4.20;;
9288;SDS011;4683;50.864;12.086;2023-08-24T15:20:27;7.50;;;4.20;;
9288;SDS011;4683;50.864;12.086;2023-08-24T15:23:00;6.40;;;3.90;;
9288;SDS011;4683;50.864;12.086;2023-08-24T15:25:32;5.40;;;3.50;;
9288;SDS011;4683;50.864;12.086;2023-08-24T15:28:01;4.93;;;3.83;;
9288;SDS011;4683;50.864;12.086;2023-08-24T15:30:31;5.67;;;3.93;;
9288;SDS011;4683;50.864;12.086;2023-08-24T15:32:59;4.00;;;3.60;;
9288;SDS011;4683;50.864;12.086;2023-08-24T15:35:30;5.90;;;4.20;;
9288;SDS011;4683;50.864;12.086;2023-08-24T15:38:00;6.20;;;3.97;;
9288;SDS011;4683;50.864;12.086;2023-08-24T15:40:29;4.50;;;4.10;;
9288;SDS011;4683;50.864;12.086;2023-08-24T15:43:00;5.00;;;4.20;;
9288;SDS011;4683;50.864;12.086;2023-08-24T15:45:31;4.53;;;3.73;;